sensor_id;sensor_type;location;lat;lon;timestamp;P1;durP1;ratioP1;P2;durP2;ratioP2
23266;SDS011;11802;53.160;8.214;2024-03-02T00:00:57;18.13;;;11.70;;
23266;SDS011;11802;53.160;8.214;2024-03-02T00:03:25;17.77;;;10.13;;
23266;SDS011;11802;53.160;8.214;2024-03-02T00:05:51;19.27;;;11.57;;
23266;SDS011;11802;53.160;8.214;2024-03-02T00:08:19;18.70;;;11.30;;
23266;SDS011;11802;53.160;8.214;2024-03-02T00:10:49;14.80;;;10.17;;
23266;SDS011;11802;53.160;8.214;2024-03-02T00:13:15;16.60;;;11.27;;
23266;SDS011;11802;53.160;8.214;2024-03-02T00:15:47;22.37;;;11.30;;
23266;SDS011;11802;53.160;8.214;2024-03-02T00:18:20;16.73;;;11.07;;
23266;SDS011;11802;53.160;8.214;2024-03-02T00:20:46;18.37;;;10.97;;
23266;SDS011;11802;53.160;8.214;2024-03-02T00:23:15;18.43;;;10.97;;
23266;SDS011;11802;53.160;8.214;2024-03-02T00:25:43;18.80;;;11.13;;
23266;SDS011;11802;53.160;8.214;2024-03-02T00:28:21;17.33;;;10.50;;
23266;SDS011;11802;53.160;8.214;2024-03-02T00:33:22;17.77;;;11.30;;
23266;SDS011;11802;53.160;8.214;2024-03-02T00:35:48;16.83;;;10.27;;
23266;SDS011;11802;53.160;8.214;2024-03-02T00:38:15;16.57;;;10.77;;
23266;SDS011;11802;53.160;8.214;2024-03-02T00:40:41;16.87;;;10.23;;
23266;SDS011;11802;53.160;8.214;2024-03-02T00:45:54;19.53;;;10.60;;
23266;SDS011;11802;53.160;8.214;2024-03-02T00:48:20;18.23;;;10.50;;
23266;SDS011;11802;53.160;8.214;2024-03-02T00:50:46;16.03;;;9.77;;
23266;SDS011;11802;53.160;8.214;2024-03-02T00:53:15;16.83;;;10.37;;
23266;SDS011;11802;53.160;8.214;2024-03-02T00:55:42;14.07;;;9.30;;
23266;SDS011;11802;53.160;8.214;2024-03-02T00:58:12;16.43;;;10.33;;
23266;SDS011;11802;53.160;8.214;2024-03-02T01:00:37;16.37;;;10.60;;
23266;SDS011;11802;53.160;8.214;2024-03-02T01:03:03;15.13;;;10.03;;
23266;SDS011;11802;53.160;8.214;2024-03-02T01:05:29;15.40;;;9.27;;
23266;SDS011;11802;53.160;8.214;2024-03-02T01:07:54;15.90;;;9.70;;
23266;SDS011;11802;53.160;8.214;2024-03-02T01:10:20;14.63;;;9.27;;
23266;SDS011;11802;53.160;8.214;2024-03-02T01:12:45;15.43;;;10.03;;
23266;SDS011;11802;53.160;8.214;2024-03-02T01:15:11;15.20;;;9.70;;
23266;SDS011;11802;53.160;8.214;2024-03-02T01:17:36;15.97;;;9.40;;
23266;SDS011;11802;53.160;8.214;2024-03-02T01:20:02;16.87;;;9.63;;
23266;SDS011;11802;53.160;8.214;2024-03-02T01:22:29;14.03;;;9.77;;
23266;SDS011;11802;53.160;8.214;2024-03-02T01:24:55;17.47;;;10.00;;
23266;SDS011;11802;53.160;8.214;2024-03-02T01:27:20;13.90;;;8.90;;
23266;SDS011;11802;53.160;8.214;2024-03-02T01:29:46;15.53;;;9.43;;
23266;SDS011;11802;53.160;8.214;2024-03-02T01:32:11;14.67;;;9.03;;
23266;SDS011;11802;53.160;8.214;2024-03-02T01:34:37;14.03;;;8.90;;
23266;SDS011;11802;53.160;8.214;2024-03-02T01:37:02;12.77;;;8.47;;
23266;SDS011;11802;53.160;8.214;2024-03-02T01:39:28;14.20;;;8.83;;
23266;SDS011;11802;53.160;8.214;2024-03-02T01:41:54;14.70;;;9.03;;
23266;SDS011;11802;53.160;8.214;2024-03-02T01:44:19;14.97;;;9.37;;
23266;SDS011;11802;53.160;8.214;2024-03-02T01:46:45;15.27;;;9.23;;
23266;SDS011;11802;53.160;8.214;2024-03-02T01:49:11;18.47;;;9.73;;
23266;SDS011;11802;53.160;8.214;2024-03-02T01:51:36;13.03;;;8.70;;
23266;SDS011;11802;53.160;8.214;2024-03-02T01:54:02;13.17;;;8.23;;
23266;SDS011;11802;53.160;8.214;2024-03-02T01:56:27;14.53;;;8.37;;
23266;SDS011;11802;53.160;8.214;2024-03-02T01:58:53;14.47;;;8.00;;
23266;SDS011;11802;53.160;8.214;2024-03-02T02:01:18;13.73;;;8.77;;
23266;SDS011;11802;53.160;8.214;2024-03-02T02:03:44;15.00;;;8.70;;
23266;SDS011;11802;53.160;8.214;2024-03-02T02:06:10;14.43;;;9.07;;
23266;SDS011;11802;53.160;8.214;2024-03-02T02:08:36;14.90;;;8.70;;
23266;SDS011;11802;53.160;8.214;2024-03-02T02:11:02;13.10;;;8.30;;
23266;SDS011;11802;53.160;8.214;2024-03-02T02:13:28;12.63;;;8.03;;
23266;SDS011;11802;53.160;8.214;2024-03-02T02:15:54;12.77;;;7.67;;
23266;SDS011;11802;53.160;8.214;2024-03-02T02:18:19;15.17;;;8.47;;
23266;SDS011;11802;53.160;8.214;2024-03-02T02:20:45;14.37;;;8.43;;
23266;SDS011;11802;53.160;8.214;2024-03-02T02:23:10;13.80;;;8.00;;
23266;SDS011;11802;53.160;8.214;2024-03-02T02:25:38;15.33;;;8.63;;
23266;SDS011;11802;53.160;8.214;2024-03-02T02:28:04;14.80;;;7.80;;
23266;SDS011;11802;53.160;8.214;2024-03-02T02:30:30;13.07;;;8.40;;
23266;SDS011;11802;53.160;8.214;2024-03-02T02:32:57;14.70;;;8.37;;
23266;SDS011;11802;53.160;8.214;2024-03-02T02:35:23;14.50;;;8.50;;
23266;SDS011;11802;53.160;8.214;2024-03-02T02:37:54;16.33;;;9.00;;
23266;SDS011;11802;53.160;8.214;2024-03-02T02:40:21;14.73;;;8.10;;
23266;SDS011;11802;53.160;8.214;2024-03-02T02:42:47;13.20;;;8.17;;
23266;SDS011;11802;53.160;8.214;2024-03-02T02:45:13;15.07;;;9.03;;
23266;SDS011;11802;53.160;8.214;2024-03-02T02:47:39;13.90;;;9.07;;
23266;SDS011;11802;53.160;8.214;2024-03-02T02:50:09;15.20;;;8.90;;
23266;SDS011;11802;53.160;8.214;2024-03-02T02:52:37;14.97;;;8.60;;
23266;SDS011;11802;53.160;8.214;2024-03-02T02:55:04;13.80;;;8.70;;
23266;SDS011;11802;53.160;8.214;2024-03-02T02:57:31;12.97;;;8.13;;
23266;SDS011;11802;53.160;8.214;2024-03-02T03:00:01;14.53;;;8.50;;
23266;SDS011;11802;53.160;8.214;2024-03-02T03:02:30;14.17;;;8.93;;
23266;SDS011;11802;53.160;8.214;2024-03-02T03:04:56;15.27;;;8.37;;
23266;SDS011;11802;53.160;8.214;2024-03-02T03:07:22;14.37;;;9.10;;
23266;SDS011;11802;53.160;8.214;2024-03-02T03:09:48;13.63;;;9.17;;
23266;SDS011;11802;53.160;8.214;2024-03-02T03:12:13;13.50;;;9.17;;
23266;SDS011;11802;53.160;8.214;2024-03-02T03:14:42;14.90;;;9.00;;
23266;SDS011;11802;53.160;8.214;2024-03-02T03:17:07;12.87;;;8.97;;
23266;SDS011;11802;53.160;8.214;2024-03-02T03:19:33;14.17;;;9.17;;
23266;SDS011;11802;53.160;8.214;2024-03-02T03:21:59;13.60;;;7.83;;
23266;SDS011;11802;53.160;8.214;2024-03-02T03:24:24;14.73;;;9.23;;
23266;SDS011;11802;53.160;8.214;2024-03-02T03:26:50;13.90;;;8.77;;
23266;SDS011;11802;53.160;8.214;2024-03-02T03:29:15;13.47;;;8.37;;
23266;SDS011;11802;53.160;8.214;2024-03-02T03:31:41;15.17;;;9.43;;
23266;SDS011;11802;53.160;8.214;2024-03-02T03:34:06;14.43;;;8.83;;
23266;SDS011;11802;53.160;8.214;2024-03-02T03:36:32;14.07;;;8.73;;
23266;SDS011;11802;53.160;8.214;2024-03-02T03:38:58;14.90;;;9.40;;
23266;SDS011;11802;53.160;8.214;2024-03-02T03:41:23;13.60;;;9.40;;
23266;SDS011;11802;53.160;8.214;2024-03-02T03:43:49;14.60;;;9.50;;
23266;SDS011;11802;53.160;8.214;2024-03-02T03:46:15;15.30;;;9.50;;
23266;SDS011;11802;53.160;8.214;2024-03-02T03:48:40;15.67;;;9.40;;
23266;SDS011;11802;53.160;8.214;2024-03-02T03:51:07;15.30;;;9.30;;
23266;SDS011;11802;53.160;8.214;2024-03-02T03:53:32;14.47;;;9.00;;
23266;SDS011;11802;53.160;8.214;2024-03-02T03:55:58;15.37;;;9.03;;
23266;SDS011;11802;53.160;8.214;2024-03-02T03:58:23;13.87;;;9.13;;
23266;SDS011;11802;53.160;8.214;2024-03-02T04:00:49;14.57;;;9.17;;
23266;SDS011;11802;53.160;8.214;2024-03-02T04:03:14;14.80;;;9.70;;
23266;SDS011;11802;53.160;8.214;2024-03-02T04:05:40;16.80;;;9.73;;
23266;SDS011;11802;53.160;8.214;2024-03-02T04:08:06;17.13;;;10.13;;
23266;SDS011;11802;53.160;8.214;2024-03-02T04:10:31;16.17;;;9.60;;
23266;SDS011;11802;53.160;8.214;2024-03-02T04:12:57;14.53;;;9.77;;
23266;SDS011;11802;53.160;8.214;2024-03-02T04:15:22;17.23;;;9.63;;
23266;SDS011;11802;53.160;8.214;2024-03-02T04:17:48;15.40;;;9.97;;
23266;SDS011;11802;53.160;8.214;2024-03-02T04:20:14;13.67;;;9.13;;
23266;SDS011;11802;53.160;8.214;2024-03-02T04:22:39;16.03;;;10.30;;
23266;SDS011;11802;53.160;8.214;2024-03-02T04:25:05;15.07;;;9.43;;
23266;SDS011;11802;53.160;8.214;2024-03-02T04:27:32;16.13;;;9.40;;
23266;SDS011;11802;53.160;8.214;2024-03-02T04:29:58;15.40;;;9.80;;
23266;SDS011;11802;53.160;8.214;2024-03-02T04:32:25;15.60;;;9.90;;
23266;SDS011;11802;53.160;8.214;2024-03-02T04:34:51;19.70;;;10.63;;
23266;SDS011;11802;53.160;8.214;2024-03-02T04:37:17;17.07;;;11.33;;
23266;SDS011;11802;53.160;8.214;2024-03-02T04:39:42;17.43;;;11.20;;
23266;SDS011;11802;53.160;8.214;2024-03-02T04:42:08;17.23;;;10.37;;
23266;SDS011;11802;53.160;8.214;2024-03-02T04:44:34;16.27;;;10.37;;
23266;SDS011;11802;53.160;8.214;2024-03-02T04:46:59;15.83;;;10.23;;
23266;SDS011;11802;53.160;8.214;2024-03-02T04:49:25;17.00;;;10.90;;
23266;SDS011;11802;53.160;8.214;2024-03-02T04:51:50;16.40;;;10.57;;
23266;SDS011;11802;53.160;8.214;2024-03-02T04:54:16;18.03;;;10.30;;
23266;SDS011;11802;53.160;8.214;2024-03-02T04:56:42;15.90;;;9.73;;
23266;SDS011;11802;53.160;8.214;2024-03-02T04:59:14;17.43;;;10.77;;
23266;SDS011;11802;53.160;8.214;2024-03-02T05:01:41;16.40;;;10.47;;
23266;SDS011;11802;53.160;8.214;2024-03-02T05:04:06;16.07;;;10.20;;
23266;SDS011;11802;53.160;8.214;2024-03-02T05:06:32;18.03;;;10.53;;
23266;SDS011;11802;53.160;8.214;2024-03-02T05:08:58;17.37;;;10.70;;
23266;SDS011;11802;53.160;8.214;2024-03-02T05:11:23;17.63;;;9.90;;
23266;SDS011;11802;53.160;8.214;2024-03-02T05:14:04;15.83;;;10.33;;
23266;SDS011;11802;53.160;8.214;2024-03-02T05:16:36;16.30;;;10.57;;
23266;SDS011;11802;53.160;8.214;2024-03-02T05:19:03;18.27;;;10.73;;
23266;SDS011;11802;53.160;8.214;2024-03-02T05:21:31;16.70;;;10.90;;
23266;SDS011;11802;53.160;8.214;2024-03-02T05:23:57;16.53;;;10.27;;
23266;SDS011;11802;53.160;8.214;2024-03-02T05:26:23;17.47;;;10.53;;
23266;SDS011;11802;53.160;8.214;2024-03-02T05:28:48;17.27;;;10.90;;
23266;SDS011;11802;53.160;8.214;2024-03-02T05:31:17;16.97;;;10.00;;
23266;SDS011;11802;53.160;8.214;2024-03-02T05:33:42;14.63;;;9.67;;
23266;SDS011;11802;53.160;8.214;2024-03-02T05:36:08;17.33;;;10.10;;
23266;SDS011;11802;53.160;8.214;2024-03-02T05:38:34;13.60;;;9.13;;
23266;SDS011;11802;53.160;8.214;2024-03-02T05:41:00;14.27;;;9.60;;
23266;SDS011;11802;53.160;8.214;2024-03-02T05:43:26;16.30;;;10.07;;
23266;SDS011;11802;53.160;8.214;2024-03-02T05:45:51;16.87;;;9.70;;
23266;SDS011;11802;53.160;8.214;2024-03-02T05:48:17;17.37;;;11.27;;
23266;SDS011;11802;53.160;8.214;2024-03-02T05:50:42;14.80;;;9.60;;
23266;SDS011;11802;53.160;8.214;2024-03-02T05:53:08;15.60;;;10.00;;
23266;SDS011;11802;53.160;8.214;2024-03-02T05:55:34;16.33;;;10.50;;
23266;SDS011;11802;53.160;8.214;2024-03-02T05:57:59;14.53;;;9.70;;
23266;SDS011;11802;53.160;8.214;2024-03-02T06:00:28;15.30;;;9.50;;
23266;SDS011;11802;53.160;8.214;2024-03-02T06:02:53;15.40;;;10.10;;
23266;SDS011;11802;53.160;8.214;2024-03-02T06:05:19;15.67;;;9.70;;
23266;SDS011;11802;53.160;8.214;2024-03-02T06:07:44;15.77;;;10.43;;
23266;SDS011;11802;53.160;8.214;2024-03-02T06:10:10;14.93;;;8.77;;
23266;SDS011;11802;53.160;8.214;2024-03-02T06:12:36;15.73;;;9.20;;
23266;SDS011;11802;53.160;8.214;2024-03-02T06:15:02;15.97;;;9.43;;
23266;SDS011;11802;53.160;8.214;2024-03-02T06:17:28;16.40;;;10.17;;
23266;SDS011;11802;53.160;8.214;2024-03-02T06:19:54;13.63;;;9.30;;
23266;SDS011;11802;53.160;8.214;2024-03-02T06:22:20;15.87;;;9.70;;
23266;SDS011;11802;53.160;8.214;2024-03-02T06:24:47;13.63;;;9.07;;
23266;SDS011;11802;53.160;8.214;2024-03-02T06:27:14;16.40;;;10.07;;
23266;SDS011;11802;53.160;8.214;2024-03-02T06:29:39;16.97;;;10.40;;
23266;SDS011;11802;53.160;8.214;2024-03-02T06:32:05;17.03;;;10.47;;
23266;SDS011;11802;53.160;8.214;2024-03-02T06:34:30;15.20;;;10.13;;
23266;SDS011;11802;53.160;8.214;2024-03-02T06:36:56;13.47;;;9.67;;
23266;SDS011;11802;53.160;8.214;2024-03-02T06:39:22;16.47;;;9.23;;
23266;SDS011;11802;53.160;8.214;2024-03-02T06:41:47;16.20;;;10.10;;
23266;SDS011;11802;53.160;8.214;2024-03-02T06:44:13;15.17;;;9.93;;
23266;SDS011;11802;53.160;8.214;2024-03-02T06:46:38;15.37;;;10.57;;
23266;SDS011;11802;53.160;8.214;2024-03-02T06:49:04;15.47;;;10.50;;
23266;SDS011;11802;53.160;8.214;2024-03-02T06:51:29;16.67;;;10.43;;
23266;SDS011;11802;53.160;8.214;2024-03-02T06:53:55;15.57;;;10.50;;
23266;SDS011;11802;53.160;8.214;2024-03-02T06:56:21;18.30;;;10.17;;
23266;SDS011;11802;53.160;8.214;2024-03-02T06:58:46;18.27;;;9.97;;
23266;SDS011;11802;53.160;8.214;2024-03-02T07:01:12;13.10;;;8.73;;
23266;SDS011;11802;53.160;8.214;2024-03-02T07:03:38;14.97;;;9.60;;
23266;SDS011;11802;53.160;8.214;2024-03-02T07:06:07;15.10;;;9.93;;
23266;SDS011;11802;53.160;8.214;2024-03-02T07:08:32;16.47;;;9.90;;
23266;SDS011;11802;53.160;8.214;2024-03-02T07:10:58;17.13;;;10.87;;
23266;SDS011;11802;53.160;8.214;2024-03-02T07:13:24;15.10;;;9.70;;
23266;SDS011;11802;53.160;8.214;2024-03-02T07:15:49;16.00;;;10.03;;
23266;SDS011;11802;53.160;8.214;2024-03-02T07:18:27;16.10;;;10.20;;
23266;SDS011;11802;53.160;8.214;2024-03-02T07:20:53;14.73;;;10.17;;
23266;SDS011;11802;53.160;8.214;2024-03-02T07:23:18;18.30;;;11.10;;
23266;SDS011;11802;53.160;8.214;2024-03-02T07:25:45;16.77;;;10.87;;
23266;SDS011;11802;53.160;8.214;2024-03-02T07:28:11;16.77;;;10.97;;
23266;SDS011;11802;53.160;8.214;2024-03-02T07:30:36;17.63;;;11.07;;
23266;SDS011;11802;53.160;8.214;2024-03-02T07:33:04;16.03;;;11.00;;
23266;SDS011;11802;53.160;8.214;2024-03-02T07:35:29;17.13;;;10.77;;
23266;SDS011;11802;53.160;8.214;2024-03-02T07:37:56;16.57;;;11.10;;
23266;SDS011;11802;53.160;8.214;2024-03-02T07:40:22;16.07;;;11.17;;
23266;SDS011;11802;53.160;8.214;2024-03-02T07:42:48;15.37;;;10.47;;
23266;SDS011;11802;53.160;8.214;2024-03-02T07:45:13;17.50;;;10.93;;
23266;SDS011;11802;53.160;8.214;2024-03-02T07:47:40;18.13;;;10.07;;
23266;SDS011;11802;53.160;8.214;2024-03-02T07:50:05;15.27;;;10.53;;
23266;SDS011;11802;53.160;8.214;2024-03-02T07:52:32;14.73;;;9.87;;
23266;SDS011;11802;53.160;8.214;2024-03-02T07:54:58;14.37;;;9.10;;
23266;SDS011;11802;53.160;8.214;2024-03-02T07:57:24;14.03;;;8.93;;
23266;SDS011;11802;53.160;8.214;2024-03-02T07:59:49;13.53;;;8.20;;
23266;SDS011;11802;53.160;8.214;2024-03-02T08:02:15;14.97;;;9.27;;
23266;SDS011;11802;53.160;8.214;2024-03-02T08:04:41;11.97;;;8.67;;
23266;SDS011;11802;53.160;8.214;2024-03-02T08:07:06;12.35;;;8.63;;
23266;SDS011;11802;53.160;8.214;2024-03-02T08:09:34;12.18;;;8.55;;
23266;SDS011;11802;53.160;8.214;2024-03-02T08:11:59;12.15;;;8.98;;
23266;SDS011;11802;53.160;8.214;2024-03-02T08:14:25;13.20;;;8.73;;
23266;SDS011;11802;53.160;8.214;2024-03-02T08:16:51;12.02;;;9.00;;
23266;SDS011;11802;53.160;8.214;2024-03-02T08:19:16;11.82;;;8.77;;
23266;SDS011;11802;53.160;8.214;2024-03-02T08:21:42;12.63;;;9.25;;
23266;SDS011;11802;53.160;8.214;2024-03-02T08:24:08;11.90;;;8.70;;
23266;SDS011;11802;53.160;8.214;2024-03-02T08:26:34;12.35;;;8.57;;
23266;SDS011;11802;53.160;8.214;2024-03-02T08:29:00;11.30;;;8.15;;
23266;SDS011;11802;53.160;8.214;2024-03-02T08:31:27;11.07;;;8.38;;
23266;SDS011;11802;53.160;8.214;2024-03-02T08:33:52;13.38;;;8.27;;
23266;SDS011;11802;53.160;8.214;2024-03-02T08:36:18;11.60;;;8.43;;
23266;SDS011;11802;53.160;8.214;2024-03-02T08:38:44;12.27;;;9.00;;
23266;SDS011;11802;53.160;8.214;2024-03-02T08:41:10;11.88;;;8.95;;
23266;SDS011;11802;53.160;8.214;2024-03-02T08:43:38;12.52;;;9.02;;
23266;SDS011;11802;53.160;8.214;2024-03-02T08:46:06;13.32;;;8.60;;
23266;SDS011;11802;53.160;8.214;2024-03-02T08:48:31;12.80;;;9.07;;
23266;SDS011;11802;53.160;8.214;2024-03-02T08:50:57;13.10;;;9.02;;
23266;SDS011;11802;53.160;8.214;2024-03-02T08:53:22;11.63;;;9.05;;
23266;SDS011;11802;53.160;8.214;2024-03-02T08:55:48;11.40;;;8.48;;
23266;SDS011;11802;53.160;8.214;2024-03-02T08:58:14;11.02;;;8.35;;
23266;SDS011;11802;53.160;8.214;2024-03-02T09:00:40;10.48;;;7.38;;
23266;SDS011;11802;53.160;8.214;2024-03-02T09:03:06;11.82;;;7.30;;
23266;SDS011;11802;53.160;8.214;2024-03-02T09:05:32;11.23;;;7.38;;
23266;SDS011;11802;53.160;8.214;2024-03-02T09:07:57;9.57;;;7.20;;
23266;SDS011;11802;53.160;8.214;2024-03-02T09:10:23;11.32;;;7.93;;
23266;SDS011;11802;53.160;8.214;2024-03-02T09:15:39;9.15;;;6.72;;
23266;SDS011;11802;53.160;8.214;2024-03-02T09:18:05;9.20;;;6.60;;
23266;SDS011;11802;53.160;8.214;2024-03-02T09:20:31;11.05;;;7.55;;
23266;SDS011;11802;53.160;8.214;2024-03-02T09:22:57;10.88;;;7.30;;
23266;SDS011;11802;53.160;8.214;2024-03-02T09:25:22;10.25;;;7.22;;
23266;SDS011;11802;53.160;8.214;2024-03-02T09:27:48;9.70;;;7.00;;
23266;SDS011;11802;53.160;8.214;2024-03-02T09:30:14;9.40;;;7.18;;
23266;SDS011;11802;53.160;8.214;2024-03-02T09:32:39;10.77;;;7.82;;
23266;SDS011;11802;53.160;8.214;2024-03-02T09:35:05;11.45;;;6.88;;
23266;SDS011;11802;53.160;8.214;2024-03-02T09:37:31;9.48;;;7.18;;
23266;SDS011;11802;53.160;8.214;2024-03-02T09:39:56;10.30;;;6.78;;
23266;SDS011;11802;53.160;8.214;2024-03-02T09:42:22;8.55;;;6.20;;
23266;SDS011;11802;53.160;8.214;2024-03-02T09:44:48;13.30;;;6.82;;
23266;SDS011;11802;53.160;8.214;2024-03-02T09:47:14;10.75;;;6.47;;
23266;SDS011;11802;53.160;8.214;2024-03-02T09:49:39;11.80;;;6.55;;
23266;SDS011;11802;53.160;8.214;2024-03-02T09:52:05;8.90;;;6.15;;
23266;SDS011;11802;53.160;8.214;2024-03-02T09:54:32;9.57;;;6.20;;
23266;SDS011;11802;53.160;8.214;2024-03-02T09:56:58;9.98;;;6.45;;
23266;SDS011;11802;53.160;8.214;2024-03-02T09:59:23;9.63;;;6.57;;
23266;SDS011;11802;53.160;8.214;2024-03-02T10:01:55;9.38;;;5.78;;
23266;SDS011;11802;53.160;8.214;2024-03-02T10:04:24;7.63;;;5.40;;
23266;SDS011;11802;53.160;8.214;2024-03-02T10:06:51;6.82;;;4.85;;
23266;SDS011;11802;53.160;8.214;2024-03-02T10:09:27;7.90;;;4.57;;
23266;SDS011;11802;53.160;8.214;2024-03-02T10:11:54;8.45;;;4.97;;
23266;SDS011;11802;53.160;8.214;2024-03-02T10:14:33;6.25;;;4.80;;
23266;SDS011;11802;53.160;8.214;2024-03-02T10:17:03;6.90;;;4.68;;
23266;SDS011;11802;53.160;8.214;2024-03-02T10:19:36;7.70;;;4.88;;
23266;SDS011;11802;53.160;8.214;2024-03-02T10:22:04;8.68;;;4.50;;
23266;SDS011;11802;53.160;8.214;2024-03-02T10:24:38;9.35;;;4.97;;
23266;SDS011;11802;53.160;8.214;2024-03-02T10:27:10;8.25;;;4.70;;
23266;SDS011;11802;53.160;8.214;2024-03-02T10:29:42;7.20;;;4.32;;
23266;SDS011;11802;53.160;8.214;2024-03-02T10:32:10;7.80;;;4.60;;
23266;SDS011;11802;53.160;8.214;2024-03-02T10:34:37;6.25;;;4.22;;
23266;SDS011;11802;53.160;8.214;2024-03-02T10:37:06;6.85;;;4.15;;
23266;SDS011;11802;53.160;8.214;2024-03-02T10:39:32;7.30;;;4.43;;
23266;SDS011;11802;53.160;8.214;2024-03-02T10:42:00;8.10;;;4.30;;
23266;SDS011;11802;53.160;8.214;2024-03-02T10:44:28;6.35;;;4.35;;
23266;SDS011;11802;53.160;8.214;2024-03-02T10:46:55;6.85;;;4.13;;
23266;SDS011;11802;53.160;8.214;2024-03-02T10:49:22;6.93;;;3.65;;
23266;SDS011;11802;53.160;8.214;2024-03-02T10:51:49;5.63;;;3.70;;
23266;SDS011;11802;53.160;8.214;2024-03-02T10:54:15;10.18;;;4.25;;
23266;SDS011;11802;53.160;8.214;2024-03-02T10:56:41;8.95;;;4.22;;
23266;SDS011;11802;53.160;8.214;2024-03-02T10:59:16;5.55;;;3.38;;
23266;SDS011;11802;53.160;8.214;2024-03-02T11:01:48;8.15;;;3.45;;
23266;SDS011;11802;53.160;8.214;2024-03-02T11:04:16;6.47;;;3.90;;
23266;SDS011;11802;53.160;8.214;2024-03-02T11:06:45;7.20;;;4.35;;
23266;SDS011;11802;53.160;8.214;2024-03-02T11:09:13;6.03;;;4.07;;
23266;SDS011;11802;53.160;8.214;2024-03-02T11:11:40;6.97;;;3.45;;
23266;SDS011;11802;53.160;8.214;2024-03-02T11:14:13;7.00;;;3.72;;
23266;SDS011;11802;53.160;8.214;2024-03-02T11:16:41;10.27;;;3.78;;
23266;SDS011;11802;53.160;8.214;2024-03-02T11:19:12;7.55;;;3.50;;
23266;SDS011;11802;53.160;8.214;2024-03-02T11:21:38;5.47;;;3.45;;
23266;SDS011;11802;53.160;8.214;2024-03-02T11:26:49;6.82;;;3.58;;
23266;SDS011;11802;53.160;8.214;2024-03-02T11:32:01;7.03;;;3.70;;
23266;SDS011;11802;53.160;8.214;2024-03-02T11:34:34;6.97;;;4.28;;
23266;SDS011;11802;53.160;8.214;2024-03-02T11:37:03;6.25;;;3.97;;
23266;SDS011;11802;53.160;8.214;2024-03-02T11:39:29;5.32;;;3.50;;
23266;SDS011;11802;53.160;8.214;2024-03-02T11:41:56;6.03;;;3.58;;
23266;SDS011;11802;53.160;8.214;2024-03-02T11:44:25;6.50;;;3.90;;
23266;SDS011;11802;53.160;8.214;2024-03-02T11:46:52;6.78;;;4.10;;
23266;SDS011;11802;53.160;8.214;2024-03-02T11:52:05;6.97;;;4.28;;
23266;SDS011;11802;53.160;8.214;2024-03-02T11:54:32;7.72;;;3.97;;
23266;SDS011;11802;53.160;8.214;2024-03-02T11:57:02;7.20;;;4.45;;
23266;SDS011;11802;53.160;8.214;2024-03-02T11:59:31;7.35;;;4.32;;
23266;SDS011;11802;53.160;8.214;2024-03-02T12:01:57;8.52;;;4.45;;
23266;SDS011;11802;53.160;8.214;2024-03-02T12:04:24;8.10;;;4.85;;
23266;SDS011;11802;53.160;8.214;2024-03-02T12:06:56;7.95;;;4.88;;
23266;SDS011;11802;53.160;8.214;2024-03-02T12:09:25;7.70;;;4.70;;
23266;SDS011;11802;53.160;8.214;2024-03-02T12:12:06;7.68;;;5.15;;
23266;SDS011;11802;53.160;8.214;2024-03-02T12:14:33;8.98;;;4.95;;
23266;SDS011;11802;53.160;8.214;2024-03-02T12:17:00;7.75;;;4.95;;
23266;SDS011;11802;53.160;8.214;2024-03-02T12:19:26;7.95;;;4.93;;
23266;SDS011;11802;53.160;8.214;2024-03-02T12:21:55;7.57;;;4.95;;
23266;SDS011;11802;53.160;8.214;2024-03-02T12:24:22;8.25;;;4.75;;
23266;SDS011;11802;53.160;8.214;2024-03-02T12:26:49;7.22;;;4.70;;
23266;SDS011;11802;53.160;8.214;2024-03-02T12:29:15;7.95;;;4.97;;
23266;SDS011;11802;53.160;8.214;2024-03-02T12:31:44;8.65;;;5.57;;
23266;SDS011;11802;53.160;8.214;2024-03-02T12:34:11;8.85;;;4.97;;
23266;SDS011;11802;53.160;8.214;2024-03-02T12:36:39;9.45;;;4.85;;
23266;SDS011;11802;53.160;8.214;2024-03-02T12:39:06;7.53;;;4.70;;
23266;SDS011;11802;53.160;8.214;2024-03-02T12:41:38;8.20;;;4.90;;
23266;SDS011;11802;53.160;8.214;2024-03-02T12:44:04;7.80;;;4.80;;
23266;SDS011;11802;53.160;8.214;2024-03-02T12:46:31;8.73;;;5.13;;
23266;SDS011;11802;53.160;8.214;2024-03-02T12:48:57;7.25;;;4.80;;
23266;SDS011;11802;53.160;8.214;2024-03-02T12:51:24;7.88;;;4.55;;
23266;SDS011;11802;53.160;8.214;2024-03-02T12:54:32;6.93;;;4.10;;
23266;SDS011;11802;53.160;8.214;2024-03-02T12:56:40;7.07;;;4.07;;
23266;SDS011;11802;53.160;8.214;2024-03-02T12:59:10;7.10;;;4.28;;
23266;SDS011;11802;53.160;8.214;2024-03-02T13:01:55;7.18;;;3.97;;
23266;SDS011;11802;53.160;8.214;2024-03-02T13:04:24;6.85;;;3.83;;
23266;SDS011;11802;53.160;8.214;2024-03-02T13:06:51;10.02;;;3.92;;
23266;SDS011;11802;53.160;8.214;2024-03-02T13:09:17;6.25;;;3.53;;
23266;SDS011;11802;53.160;8.214;2024-03-02T13:11:43;7.05;;;3.70;;
23266;SDS011;11802;53.160;8.214;2024-03-02T13:14:10;6.15;;;4.15;;
23266;SDS011;11802;53.160;8.214;2024-03-02T13:16:39;6.30;;;4.00;;
23266;SDS011;11802;53.160;8.214;2024-03-02T13:19:11;5.65;;;3.58;;
23266;SDS011;11802;53.160;8.214;2024-03-02T13:21:37;7.03;;;4.10;;
23266;SDS011;11802;53.160;8.214;2024-03-02T13:24:03;5.18;;;3.40;;
23266;SDS011;11802;53.160;8.214;2024-03-02T13:26:30;7.22;;;3.67;;
23266;SDS011;11802;53.160;8.214;2024-03-02T13:28:55;5.75;;;3.92;;
23266;SDS011;11802;53.160;8.214;2024-03-02T13:31:21;6.93;;;4.10;;
23266;SDS011;11802;53.160;8.214;2024-03-02T13:33:47;6.05;;;3.75;;
23266;SDS011;11802;53.160;8.214;2024-03-02T13:36:12;6.68;;;3.60;;
23266;SDS011;11802;53.160;8.214;2024-03-02T13:38:38;6.93;;;3.90;;
23266;SDS011;11802;53.160;8.214;2024-03-02T13:41:04;6.53;;;4.00;;
23266;SDS011;11802;53.160;8.214;2024-03-02T13:43:30;6.35;;;4.32;;
23266;SDS011;11802;53.160;8.214;2024-03-02T13:45:59;7.35;;;4.70;;
23266;SDS011;11802;53.160;8.214;2024-03-02T13:48:25;8.68;;;4.90;;
23266;SDS011;11802;53.160;8.214;2024-03-02T13:50:51;8.60;;;5.32;;
23266;SDS011;11802;53.160;8.214;2024-03-02T13:53:18;8.18;;;4.65;;
23266;SDS011;11802;53.160;8.214;2024-03-02T13:55:44;8.63;;;4.60;;
23266;SDS011;11802;53.160;8.214;2024-03-02T13:58:09;5.85;;;3.85;;
23266;SDS011;11802;53.160;8.214;2024-03-02T14:00:36;9.30;;;5.90;;
23266;SDS011;11802;53.160;8.214;2024-03-02T14:03:02;7.85;;;4.40;;
23266;SDS011;11802;53.160;8.214;2024-03-02T14:05:28;9.98;;;4.72;;
23266;SDS011;11802;53.160;8.214;2024-03-02T14:07:54;7.75;;;4.75;;
23266;SDS011;11802;53.160;8.214;2024-03-02T14:10:19;8.88;;;5.32;;
23266;SDS011;11802;53.160;8.214;2024-03-02T14:12:47;7.60;;;4.50;;
23266;SDS011;11802;53.160;8.214;2024-03-02T14:15:13;8.50;;;4.82;;
23266;SDS011;11802;53.160;8.214;2024-03-02T14:17:39;10.07;;;4.95;;
23266;SDS011;11802;53.160;8.214;2024-03-02T14:20:05;6.57;;;4.50;;
23266;SDS011;11802;53.160;8.214;2024-03-02T14:22:31;6.15;;;4.07;;
23266;SDS011;11802;53.160;8.214;2024-03-02T14:24:57;7.70;;;4.50;;
23266;SDS011;11802;53.160;8.214;2024-03-02T14:27:22;7.43;;;4.63;;
23266;SDS011;11802;53.160;8.214;2024-03-02T14:29:48;7.38;;;4.25;;
23266;SDS011;11802;53.160;8.214;2024-03-02T14:32:13;7.47;;;4.50;;
23266;SDS011;11802;53.160;8.214;2024-03-02T14:34:39;8.55;;;5.38;;
23266;SDS011;11802;53.160;8.214;2024-03-02T14:37:04;7.10;;;4.70;;
23266;SDS011;11802;53.160;8.214;2024-03-02T14:39:30;8.03;;;5.07;;
23266;SDS011;11802;53.160;8.214;2024-03-02T14:41:59;8.95;;;5.40;;
23266;SDS011;11802;53.160;8.214;2024-03-02T14:44:26;8.83;;;5.30;;
23266;SDS011;11802;53.160;8.214;2024-03-02T14:46:51;8.43;;;5.43;;
23266;SDS011;11802;53.160;8.214;2024-03-02T14:49:17;8.23;;;5.03;;